sensor_id;sensor_type;location;lat;lon;timestamp;pressure;altitude;pressure_sealevel;temperature;humidity
10958;BME280;5531;42.570;23.676;2022-07-09T00:00:09;92016.81;;;16.66;100.00
10958;BME280;5531;42.570;23.676;2022-07-09T00:02:39;92017.28;;;16.63;100.00
10958;BME280;5531;42.570;23.676;2022-07-09T00:05:08;92005.31;;;16.60;100.00
10958;BME280;5531;42.570;23.676;2022-07-09T00:07:39;92005.44;;;16.54;100.00
10958;BME280;5531;42.570;23.676;2022-07-09T00:10:08;91993.28;;;16.41;100.00
10958;BME280;5531;42.570;23.676;2022-07-09T00:12:37;91996.63;;;16.48;100.00
10958;BME280;5531;42.570;23.676;2022-07-09T00:15:10;91989.72;;;16.47;100.00
10958;BME280;5531;42.570;23.676;2022-07-09T00:17:39;91990.63;;;16.53;100.00
10958;BME280;5531;42.570;23.676;2022-07-09T00:20:09;91985.44;;;16.58;100.00
10958;BME280;5531;42.570;23.676;2022-07-09T00:22:39;91978.63;;;16.62;100.00
10958;BME280;5531;42.570;23.676;2022-07-09T00:25:08;91978.41;;;16.63;100.00
10958;BME280;5531;42.570;23.676;2022-07-09T00:27:37;91980.84;;;16.53;100.00
10958;BME280;5531;42.570;23.676;2022-07-09T00:30:10;91975.44;;;16.60;100.00
10958;BME280;5531;42.570;23.676;2022-07-09T00:32:39;91963.97;;;16.54;100.00
10958;BME280;5531;42.570;23.676;2022-07-09T00:35:09;91972.09;;;16.64;100.00
10958;BME280;5531;42.570;23.676;2022-07-09T00:37:38;91970.00;;;16.66;100.00
10958;BME280;5531;42.570;23.676;2022-07-09T00:40:08;91963.34;;;16.64;100.00
10958;BME280;5531;42.570;23.676;2022-07-09T00:42:37;91962.22;;;16.60;100.00
10958;BME280;5531;42.570;23.676;2022-07-09T00:45:07;91964.53;;;16.56;100.00
10958;BME280;5531;42.570;23.676;2022-07-09T00:47:39;91963.09;;;16.65;100.00
10958;BME280;5531;42.570;23.676;2022-07-09T00:50:08;91951.44;;;16.49;100.00
10958;BME280;5531;42.570;23.676;2022-07-09T00:52:38;91957.72;;;16.60;100.00
10958;BME280;5531;42.570;23.676;2022-07-09T00:55:08;91960.50;;;16.54;100.00
10958;BME280;5531;42.570;23.676;2022-07-09T00:57:39;91953.56;;;16.64;100.00
10958;BME280;5531;42.570;23.676;2022-07-09T01:00:10;91954.97;;;16.55;100.00
10958;BME280;5531;42.570;23.676;2022-07-09T01:02:42;91955.88;;;16.61;100.00
10958;BME280;5531;42.570;23.676;2022-07-09T01:05:11;91954.50;;;16.58;100.00
10958;BME280;5531;42.570;23.676;2022-07-09T01:07:40;91952.19;;;16.62;100.00
10958;BME280;5531;42.570;23.676;2022-07-09T01:10:10;91958.31;;;16.62;100.00
10958;BME280;5531;42.570;23.676;2022-07-09T01:12:39;91950.38;;;16.62;100.00
10958;BME280;5531;42.570;23.676;2022-07-09T01:15:09;91946.91;;;16.62;100.00
10958;BME280;5531;42.570;23.676;2022-07-09T01:17:41;91953.25;;;16.61;100.00
10958;BME280;5531;42.570;23.676;2022-07-09T01:20:10;91949.22;;;16.58;100.00
10958;BME280;5531;42.570;23.676;2022-07-09T01:22:42;91939.66;;;16.57;100.00
10958;BME280;5531;42.570;23.676;2022-07-09T01:25:15;91948.09;;;16.54;100.00
10958;BME280;5531;42.570;23.676;2022-07-09T01:27:46;91944.63;;;16.54;100.00
10958;BME280;5531;42.570;23.676;2022-07-09T01:30:24;91936.81;;;16.47;100.00
10958;BME280;5531;42.570;23.676;2022-07-09T01:32:54;91948.09;;;16.42;100.00
10958;BME280;5531;42.570;23.676;2022-07-09T01:35:23;91943.88;;;16.41;100.00
10958;BME280;5531;42.570;23.676;2022-07-09T01:37:55;91937.66;;;16.36;100.00
10958;BME280;5531;42.570;23.676;2022-07-09T01:40:24;91949.63;;;16.38;100.00
10958;BME280;5531;42.570;23.676;2022-07-09T01:42:53;91945.59;;;16.36;100.00
10958;BME280;5531;42.570;23.676;2022-07-09T01:45:22;91943.03;;;16.41;100.00
10958;BME280;5531;42.570;23.676;2022-07-09T01:47:51;91947.88;;;16.44;100.00
10958;BME280;5531;42.570;23.676;2022-07-09T01:50:21;91941.66;;;16.50;100.00
10958;BME280;5531;42.570;23.676;2022-07-09T01:52:50;91940.84;;;16.49;100.00
10958;BME280;5531;42.570;23.676;2022-07-09T01:55:21;91941.66;;;16.50;100.00
10958;BME280;5531;42.570;23.676;2022-07-09T01:57:51;91950.38;;;16.50;100.00
10958;BME280;5531;42.570;23.676;2022-07-09T02:00:20;91944.84;;;16.52;100.00
10958;BME280;5531;42.570;23.676;2022-07-09T02:02:49;91943.81;;;16.53;100.00
10958;BME280;5531;42.570;23.676;2022-07-09T02:05:18;91941.41;;;16.52;100.00
10958;BME280;5531;42.570;23.676;2022-07-09T02:07:48;91955.44;;;16.52;100.00
10958;BME280;5531;42.570;23.676;2022-07-09T02:10:17;91960.72;;;16.52;100.00
10958;BME280;5531;42.570;23.676;2022-07-09T02:12:49;91945.81;;;16.46;100.00
10958;BME280;5531;42.570;23.676;2022-07-09T02:15:18;91950.03;;;16.47;100.00
10958;BME280;5531;42.570;23.676;2022-07-09T02:17:47;91942.13;;;16.47;100.00
10958;BME280;5531;42.570;23.676;2022-07-09T02:20:17;91939.47;;;16.47;100.00
10958;BME280;5531;42.570;23.676;2022-07-09T02:22:46;91938.91;;;16.45;100.00
10958;BME280;5531;42.570;23.676;2022-07-09T02:25:16;91933.28;;;16.41;100.00
10958;BME280;5531;42.570;23.676;2022-07-09T02:27:48;91936.06;;;16.35;100.00
10958;BME280;5531;42.570;23.676;2022-07-09T02:30:17;91931.47;;;16.30;100.00
10958;BME280;5531;42.570;23.676;2022-07-09T02:32:46;91937.22;;;16.27;100.00
10958;BME280;5531;42.570;23.676;2022-07-09T02:35:15;91945.75;;;16.17;100.00
10958;BME280;5531;42.570;23.676;2022-07-09T02:37:44;91938.97;;;15.98;100.00
10958;BME280;5531;42.570;23.676;2022-07-09T02:40:13;91943.56;;;16.02;100.00
10958;BME280;5531;42.570;23.676;2022-07-09T02:42:43;91950.56;;;16.08;100.00
10958;BME280;5531;42.570;23.676;2022-07-09T02:45:15;91961.13;;;16.08;100.00
10958;BME280;5531;42.570;23.676;2022-07-09T02:47:44;91968.97;;;16.15;100.00
10958;BME280;5531;42.570;23.676;2022-07-09T02:50:13;91960.91;;;16.10;100.00
10958;BME280;5531;42.570;23.676;2022-07-09T02:52:42;91965.59;;;16.20;100.00
10958;BME280;5531;42.570;23.676;2022-07-09T02:55:11;91971.94;;;16.19;100.00
10958;BME280;5531;42.570;23.676;2022-07-09T02:57:40;91970.91;;;16.08;100.00
10958;BME280;5531;42.570;23.676;2022-07-09T03:00:10;91979.88;;;16.19;100.00
10958;BME280;5531;42.570;23.676;2022-07-09T03:02:42;91984.94;;;16.20;100.00
10958;BME280;5531;42.570;23.676;2022-07-09T03:05:11;91963.78;;;16.20;100.00
10958;BME280;5531;42.570;23.676;2022-07-09T03:07:40;91975.72;;;16.23;100.00
10958;BME280;5531;42.570;23.676;2022-07-09T03:10:09;91966.56;;;16.13;100.00
10958;BME280;5531;42.570;23.676;2022-07-09T03:12:38;91977.91;;;16.14;100.00
10958;BME280;5531;42.570;23.676;2022-07-09T03:15:08;91974.47;;;16.13;100.00
10958;BME280;5531;42.570;23.676;2022-07-09T03:17:41;91980.22;;;16.10;100.00
10958;BME280;5531;42.570;23.676;2022-07-09T03:20:11;91986.19;;;16.18;100.00
10958;BME280;5531;42.570;23.676;2022-07-09T03:22:41;91979.16;;;16.11;100.00
10958;BME280;5531;42.570;23.676;2022-07-09T03:25:10;91982.97;;;16.16;100.00
10958;BME280;5531;42.570;23.676;2022-07-09T03:27:39;91973.56;;;16.08;100.00
10958;BME280;5531;42.570;23.676;2022-07-09T03:30:09;91984.59;;;16.17;100.00
10958;BME280;5531;42.570;23.676;2022-07-09T03:32:41;91977.69;;;16.16;100.00
10958;BME280;5531;42.570;23.676;2022-07-09T03:35:10;91976.19;;;16.08;100.00
10958;BME280;5531;42.570;23.676;2022-07-09T03:37:39;91980.66;;;16.19;100.00
10958;BME280;5531;42.570;23.676;2022-07-09T03:40:09;91977.78;;;16.21;100.00
10958;BME280;5531;42.570;23.676;2022-07-09T03:42:38;91976.31;;;16.25;100.00
10958;BME280;5531;42.570;23.676;2022-07-09T03:45:08;91963.31;;;16.23;100.00
10958;BME280;5531;42.570;23.676;2022-07-09T03:47:40;91981.59;;;16.25;100.00
10958;BME280;5531;42.570;23.676;2022-07-09T03:50:10;91970.31;;;16.29;100.00
10958;BME280;5531;42.570;23.676;2022-07-09T03:52:39;91974.34;;;16.32;100.00
10958;BME280;5531;42.570;23.676;2022-07-09T03:55:09;91968.94;;;16.27;100.00
10958;BME280;5531;42.570;23.676;2022-07-09T03:57:38;91971.91;;;16.30;100.00
10958;BME280;5531;42.570;23.676;2022-07-09T04:00:09;91966.16;;;16.34;100.00
10958;BME280;5531;42.570;23.676;2022-07-09T04:02:41;91954.81;;;16.33;100.00
10958;BME280;5531;42.570;23.676;2022-07-09T04:05:10;91958.25;;;16.34;100.00
10958;BME280;5531;42.570;23.676;2022-07-09T04:07:39;91961.91;;;16.33;100.00
10958;BME280;5531;42.570;23.676;2022-07-09T04:10:09;91959.03;;;16.34;100.00
10958;BME280;5531;42.570;23.676;2022-07-09T04:12:38;91958.84;;;16.24;100.00
10958;BME280;5531;42.570;23.676;2022-07-09T04:15:07;91983.88;;;16.33;100.00
10958;BME280;5531;42.570;23.676;2022-07-09T04:17:36;91972.03;;;16.36;100.00
10958;BME280;5531;42.570;23.676;2022-07-09T04:20:10;91983.66;;;16.35;100.00
10958;BME280;5531;42.570;23.676;2022-07-09T04:22:39;91982.28;;;16.32;100.00
10958;BME280;5531;42.570;23.676;2022-07-09T04:25:09;91997.09;;;16.33;100.00
10958;BME280;5531;42.570;23.676;2022-07-09T04:27:38;91980.41;;;16.33;100.00
10958;BME280;5531;42.570;23.676;2022-07-09T04:30:08;91987.44;;;16.27;100.00
10958;BME280;5531;42.570;23.676;2022-07-09T04:32:37;91989.97;;;16.34;100.00
10958;BME280;5531;42.570;23.676;2022-07-09T04:35:10;91986.66;;;16.26;100.00
10958;BME280;5531;42.570;23.676;2022-07-09T04:37:40;91990.88;;;16.27;100.00
10958;BME280;5531;42.570;23.676;2022-07-09T04:40:10;91974.59;;;16.19;100.00
10958;BME280;5531;42.570;23.676;2022-07-09T04:42:39;91985.84;;;16.14;100.00
10958;BME280;5531;42.570;23.676;2022-07-09T04:45:09;91991.13;;;16.14;100.00
10958;BME280;5531;42.570;23.676;2022-07-09T04:47:39;91995.63;;;16.13;100.00
10958;BME280;5531;42.570;23.676;2022-07-09T04:50:11;91987.56;;;16.20;100.00
10958;BME280;5531;42.570;23.676;2022-07-09T04:52:40;91988.94;;;16.23;100.00
10958;BME280;5531;42.570;23.676;2022-07-09T04:55:10;91989.88;;;16.28;100.00
10958;BME280;5531;42.570;23.676;2022-07-09T04:57:41;91982.03;;;16.34;100.00
10958;BME280;5531;42.570;23.676;2022-07-09T05:00:11;91979.41;;;16.34;100.00
10958;BME280;5531;42.570;23.676;2022-07-09T05:02:42;91977.78;;;16.33;100.00
10958;BME280;5531;42.570;23.676;2022-07-09T05:05:14;91980.66;;;16.43;100.00
10958;BME280;5531;42.570;23.676;2022-07-09T05:07:48;91978.91;;;16.48;100.00
10958;BME280;5531;42.570;23.676;2022-07-09T05:10:17;91988.22;;;16.51;100.00
10958;BME280;5531;42.570;23.676;2022-07-09T05:12:46;91975.56;;;16.53;100.00
10958;BME280;5531;42.570;23.676;2022-07-09T05:15:16;91987.41;;;16.50;100.00
10958;BME280;5531;42.570;23.676;2022-07-09T05:17:58;91988.31;;;16.56;100.00
10958;BME280;5531;42.570;23.676;2022-07-09T05:20:39;91984.63;;;16.57;100.00
10958;BME280;5531;42.570;23.676;2022-07-09T05:23:08;91991.34;;;16.48;100.00
10958;BME280;5531;42.570;23.676;2022-07-09T05:25:37;91992.31;;;16.59;100.00
10958;BME280;5531;42.570;23.676;2022-07-09T05:28:06;91992.56;;;16.57;100.00
10958;BME280;5531;42.570;23.676;2022-07-09T05:30:35;91995.22;;;16.57;100.00
10958;BME280;5531;42.570;23.676;2022-07-09T05:33:06;92006.94;;;16.61;100.00
10958;BME280;5531;42.570;23.676;2022-07-09T05:35:37;92016.25;;;16.64;100.00
10958;BME280;5531;42.570;23.676;2022-07-09T05:38:06;92018.44;;;16.55;100.00
10958;BME280;5531;42.570;23.676;2022-07-09T05:40:35;92017.41;;;16.56;100.00
10958;BME280;5531;42.570;23.676;2022-07-09T05:43:05;92006.75;;;16.51;100.00
10958;BME280;5531;42.570;23.676;2022-07-09T05:45:33;92011.06;;;16.57;100.00
10958;BME280;5531;42.570;23.676;2022-07-09T05:48:03;92013.72;;;16.57;100.00
10958;BME280;5531;42.570;23.676;2022-07-09T05:50:33;92008.66;;;16.56;100.00
10958;BME280;5531;42.570;23.676;2022-07-09T05:53:05;92012.03;;;16.51;100.00
10958;BME280;5531;42.570;23.676;2022-07-09T05:55:34;92028.47;;;16.53;100.00
10958;BME280;5531;42.570;23.676;2022-07-09T05:58:03;92021.56;;;16.40;100.00
10958;BME280;5531;42.570;23.676;2022-07-09T06:00:32;92012.25;;;16.38;100.00
10958;BME280;5531;42.570;23.676;2022-07-09T06:03:01;92014.31;;;16.36;100.00
10958;BME280;5531;42.570;23.676;2022-07-09T06:05:30;92015.63;;;16.33;100.00
10958;BME280;5531;42.570;23.676;2022-07-09T06:08:00;92022.03;;;16.37;100.00
10958;BME280;5531;42.570;23.676;2022-07-09T06:10:31;92022.03;;;16.37;100.00
10958;BME280;5531;42.570;23.676;2022-07-09T06:13:00;92023.31;;;16.35;100.00
10958;BME280;5531;42.570;23.676;2022-07-09T06:15:30;92023.78;;;16.31;100.00
10958;BME280;5531;42.570;23.676;2022-07-09T06:17:59;92022.38;;;16.41;100.00
10958;BME280;5531;42.570;23.676;2022-07-09T06:20:28;92014.56;;;16.46;100.00
10958;BME280;5531;42.570;23.676;2022-07-09T06:22:57;92018.91;;;16.52;100.00
10958;BME280;5531;42.570;23.676;2022-07-09T06:25:27;92016.84;;;16.54;100.00
10958;BME280;5531;42.570;23.676;2022-07-09T06:27:58;92025.69;;;16.60;100.00
10958;BME280;5531;42.570;23.676;2022-07-09T06:30:27;92027.31;;;16.61;100.00
10958;BME280;5531;42.570;23.676;2022-07-09T06:32:57;92021.78;;;16.62;100.00
10958;BME280;5531;42.570;23.676;2022-07-09T06:35:26;92003.72;;;16.59;100.00
10958;BME280;5531;42.570;23.676;2022-07-09T06:37:56;92010.97;;;16.64;100.00
10958;BME280;5531;42.570;23.676;2022-07-09T06:40:26;92016.13;;;16.71;100.00
10958;BME280;5531;42.570;23.676;2022-07-09T06:42:58;92015.66;;;16.74;100.00
10958;BME280;5531;42.570;23.676;2022-07-09T06:45:27;92020.22;;;16.78;100.00
10958;BME280;5531;42.570;23.676;2022-07-09T06:47:57;92030.47;;;16.75;100.00
10958;BME280;5531;42.570;23.676;2022-07-09T06:50:26;92021.66;;;16.69;100.00
10958;BME280;5531;42.570;23.676;2022-07-09T06:52:55;92027.72;;;16.81;100.00
10958;BME280;5531;42.570;23.676;2022-07-09T06:55:24;92032.19;;;16.81;100.00
10958;BME280;5531;42.570;23.676;2022-07-09T06:57:54;92029.22;;;16.89;100.00
10958;BME280;5531;42.570;23.676;2022-07-09T07:00:26;92022.75;;;16.97;100.00
10958;BME280;5531;42.570;23.676;2022-07-09T07:02:55;92031.34;;;17.04;100.00
10958;BME280;5531;42.570;23.676;2022-07-09T07:05:26;92031.03;;;17.00;100.00
10958;BME280;5531;42.570;23.676;2022-07-09T07:07:57;92026.66;;;16.94;100.00
10958;BME280;5531;42.570;23.676;2022-07-09T07:10:26;92010.47;;;16.91;100.00
10958;BME280;5531;42.570;23.676;2022-07-09T07:12:55;92034.03;;;16.92;100.00
10958;BME280;5531;42.570;23.676;2022-07-09T07:15:27;92026.34;;;16.91;100.00
10958;BME280;5531;42.570;23.676;2022-07-09T07:17:56;92025.19;;;16.98;100.00
10958;BME280;5531;42.570;23.676;2022-07-09T07:20:25;92021.56;;;17.04;100.00
10958;BME280;5531;42.570;23.676;2022-07-09T07:22:55;92022.94;;;17.07;100.00
10958;BME280;5531;42.570;23.676;2022-07-09T07:25:24;92024.81;;;17.07;100.00
10958;BME280;5531;42.570;23.676;2022-07-09T07:27:53;92022.06;;;17.01;100.00
10958;BME280;5531;42.570;23.676;2022-07-09T07:30:27;92016.03;;;17.06;100.00
10958;BME280;5531;42.570;23.676;2022-07-09T07:32:58;92028.72;;;17.04;100.00
10958;BME280;5531;42.570;23.676;2022-07-09T07:35:28;92033.69;;;17.00;100.00
10958;BME280;5531;42.570;23.676;2022-07-09T07:37:58;92018.41;;;16.91;100.00
10958;BME280;5531;42.570;23.676;2022-07-09T07:40:27;92013.34;;;16.89;100.00
10958;BME280;5531;42.570;23.676;2022-07-09T07:42:57;92014.00;;;16.96;100.00
10958;BME280;5531;42.570;23.676;2022-07-09T07:45:29;92014.34;;;17.00;100.00
10958;BME280;5531;42.570;23.676;2022-07-09T07:47:58;92009.19;;;16.93;100.00
10958;BME280;5531;42.570;23.676;2022-07-09T07:50:27;92012.03;;;17.03;100.00
10958;BME280;5531;42.570;23.676;2022-07-09T07:52:58;92009.63;;;17.02;100.00
10958;BME280;5531;42.570;23.676;2022-07-09T07:55:28;92011.81;;;17.05;100.00
10958;BME280;5531;42.570;23.676;2022-07-09T07:57:57;92015.81;;;17.08;100.00
10958;BME280;5531;42.570;23.676;2022-07-09T08:00:29;92011.56;;;17.07;100.00
10958;BME280;5531;42.570;23.676;2022-07-09T08:02:58;92017.19;;;17.10;100.00
10958;BME280;5531;42.570;23.676;2022-07-09T08:05:28;92016.72;;;17.13;100.00
10958;BME280;5531;42.570;23.676;2022-07-09T08:07:58;92025.47;;;17.14;100.00
10958;BME280;5531;42.570;23.676;2022-07-09T08:10:27;92019.03;;;17.10;100.00
10958;BME280;5531;42.570;23.676;2022-07-09T08:12:56;92017.75;;;17.12;100.00
10958;BME280;5531;42.570;23.676;2022-07-09T08:15:28;92016.88;;;17.07;100.00
10958;BME280;5531;42.570;23.676;2022-07-09T08:17:58;92020.88;;;17.09;100.00
10958;BME280;5531;42.570;23.676;2022-07-09T08:20:27;92023.03;;;17.12;100.00
10958;BME280;5531;42.570;23.676;2022-07-09T08:22:56;92020.16;;;17.14;100.00
10958;BME280;5531;42.570;23.676;2022-07-09T08:25:26;92017.59;;;17.19;100.00
10958;BME280;5531;42.570;23.676;2022-07-09T08:27:56;92027.72;;;17.22;100.00
10958;BME280;5531;42.570;23.676;2022-07-09T08:30:28;92025.56;;;17.19;100.00
10958;BME280;5531;42.570;23.676;2022-07-09T08:32:57;92017.28;;;17.15;100.00
10958;BME280;5531;42.570;23.676;2022-07-09T08:35:27;92019.38;;;17.13;100.00
10958;BME280;5531;42.570;23.676;2022-07-09T08:37:57;92021.47;;;17.11;100.00
10958;BME280;5531;42.570;23.676;2022-07-09T08:40:26;92019.19;;;17.03;100.00
10958;BME280;5531;42.570;23.676;2022-07-09T08:42:56;92025.19;;;16.98;100.00
10958;BME280;5531;42.570;23.676;2022-07-09T08:45:30;92031.63;;;16.91;100.00
10958;BME280;5531;42.570;23.676;2022-07-09T08:48:00;92037.16;;;16.89;100.00
10958;BME280;5531;42.570;23.676;2022-07-09T08:50:31;92027.38;;;16.78;100.00
10958;BME280;5531;42.570;23.676;2022-07-09T08:53:02;92018.88;;;16.88;100.00
10958;BME280;5531;42.570;23.676;2022-07-09T08:55:31;92028.63;;;16.99;100.00
10958;BME280;5531;42.570;23.676;2022-07-09T08:58:02;92038.03;;;17.07;100.00
10958;BME280;5531;42.570;23.676;2022-07-09T09:00:34;92033.78;;;17.06;100.00
10958;BME280;5531;42.570;23.676;2022-07-09T09:03:05;92034.47;;;17.13;100.00
10958;BME280;5531;42.570;23.676;2022-07-09T09:05:34;92033.03;;;17.22;100.00
10958;BME280;5531;42.570;23.676;2022-07-09T09:08:17;92038.22;;;17.46;100.00
10958;BME280;5531;42.570;23.676;2022-07-09T09:10:48;92039.91;;;17.52;100.00
10958;BME280;5531;42.570;23.676;2022-07-09T09:13:17;92036.53;;;17.56;100.00
10958;BME280;5531;42.570;23.676;2022-07-09T09:15:49;92034.34;;;17.65;100.00
10958;BME280;5531;42.570;23.676;2022-07-09T09:18:22;92029.13;;;17.70;100.00
10958;BME280;5531;42.570;23.676;2022-07-09T09:20:52;92039.25;;;17.73;100.00
10958;BME280;5531;42.570;23.676;2022-07-09T09:23:21;92034.50;;;17.75;100.00
10958;BME280;5531;42.570;23.676;2022-07-09T09:25:50;92032.31;;;17.72;100.00
10958;BME280;5531;42.570;23.676;2022-07-09T09:28:21;92037.22;;;17.81;100.00
10958;BME280;5531;42.570;23.676;2022-07-09T09:30:53;92037.69;;;17.89;100.00
10958;BME280;5531;42.570;23.676;2022-07-09T09:33:23;92035.66;;;17.97;100.00
10958;BME280;5531;42.570;23.676;2022-07-09T09:35:53;92034.94;;;18.01;100.00
10958;BME280;5531;42.570;23.676;2022-07-09T09:38:22;92032.13;;;18.08;100.00
10958;BME280;5531;42.570;23.676;2022-07-09T09:40:55;92034.28;;;18.28;100.00
10958;BME280;5531;42.570;23.676;2022-07-09T09:43:25;92030.50;;;18.41;100.00
10958;BME280;5531;42.570;23.676;2022-07-09T09:45:58;92037.47;;;18.47;100.00
10958;BME280;5531;42.570;23.676;2022-07-09T09:48:30;92042.38;;;18.38;98.88
10958;BME280;5531;42.570;23.676;2022-07-09T09:51:00;92032.75;;;18.32;99.20
10958;BME280;5531;42.570;23.676;2022-07-09T09:53:31;92034.53;;;18.26;97.63
10958;BME280;5531;42.570;23.676;2022-07-09T09:56:01;92035.81;;;18.24;95.08
10958;BME280;5531;42.570;23.676;2022-07-09T09:58:30;92033.78;;;18.31;95.86
10958;BME280;5531;42.570;23.676;2022-07-09T10:01:03;92034.41;;;18.38;94.18
10958;BME280;5531;42.570;23.676;2022-07-09T10:03:33;92042.97;;;18.40;92.44
10958;BME280;5531;42.570;23.676;2022-07-09T10:06:04;92037.63;;;18.57;95.37
10958;BME280;5531;42.570;23.676;2022-07-09T10:08:34;92030.66;;;18.73;95.54
10958;BME280;5531;42.570;23.676;2022-07-09T10:11:04;92039.25;;;18.97;92.51
10958;BME280;5531;42.570;23.676;2022-07-09T10:13:34;92041.81;;;19.14;89.69
10958;BME280;5531;42.570;23.676;2022-07-09T10:16:09;92034.22;;;19.23;87.23
10958;BME280;5531;42.570;23.676;2022-07-09T10:18:38;92039.22;;;19.19;87.39
10958;BME280;5531;42.570;23.676;2022-07-09T10:21:18;92037.69;;;19.23;88.61
10958;BME280;5531;42.570;23.676;2022-07-09T10:23:59;92033.59;;;19.16;86.53
10958;BME280;5531;42.570;23.676;2022-07-09T10:26:43;92021.63;;;19.13;85.73
10958;BME280;5531;42.570;23.676;2022-07-09T10:29:20;92028.78;;;19.13;86.57
10958;BME280;5531;42.570;23.676;2022-07-09T10:31:52;92031.50;;;19.18;87.68
10958;BME280;5531;42.570;23.676;2022-07-09T10:34:37;92029.97;;;19.22;87.93
10958;BME280;5531;42.570;23.676;2022-07-09T10:37:12;92033.41;;;19.22;89.63
10958;BME280;5531;42.570;23.676;2022-07-09T10:39:41;92033.34;;;19.17;86.05
10958;BME280;5531;42.570;23.676;2022-07-09T10:42:22;92028.59;;;19.19;88.39
10958;BME280;5531;42.570;23.676;2022-07-09T10:44:52;92035.56;;;19.26;87.67
10958;BME280;5531;42.570;23.676;2022-07-09T10:47:24;92037.84;;;19.39;89.48
10958;BME280;5531;42.570;23.676;2022-07-09T10:49:53;92030.44;;;19.41;87.35
10958;BME280;5531;42.570;23.676;2022-07-09T10:52:30;92029.50;;;19.52;85.95
10958;BME280;5531;42.570;23.676;2022-07-09T10:54:59;92027.50;;;19.70;86.29
10958;BME280;5531;42.570;23.676;2022-07-09T10:57:28;92030.16;;;19.92;83.86
10958;BME280;5531;42.570;23.676;2022-07-09T10:59:57;92023.25;;;19.96;80.59
10958;BME280;5531;42.570;23.676;2022-07-09T11:02:29;92029.25;;;19.81;80.80
10958;BME280;5531;42.570;23.676;2022-07-09T11:04:58;92023.66;;;19.83;81.83
10958;BME280;5531;42.570;23.676;2022-07-09T11:07:27;92030.41;;;19.90;83.18
10958;BME280;5531;42.570;23.676;2022-07-09T11:09:58;92020.22;;;19.82;81.68
10958;BME280;5531;42.570;23.676;2022-07-09T11:12:27;92030.47;;;19.73;81.77
10958;BME280;5531;42.570;23.676;2022-07-09T11:14:56;92023.25;;;19.69;80.12
10958;BME280;5531;42.570;23.676;2022-07-09T11:17:26;92025.41;;;19.72;82.27
10958;BME280;5531;42.570;23.676;2022-07-09T11:19:57;92029.50;;;19.80;84.49
10958;BME280;5531;42.570;23.676;2022-07-09T11:22:26;92021.00;;;19.83;84.50
10958;BME280;5531;42.570;23.676;2022-07-09T11:24:55;92018.91;;;19.85;83.57
10958;BME280;5531;42.570;23.676;2022-07-09T11:27:25;92020.22;;;19.82;82.16
10958;BME280;5531;42.570;23.676;2022-07-09T11:29:54;92008.59;;;19.88;84.34
10958;BME280;5531;42.570;23.676;2022-07-09T11:32:23;92012.25;;;19.82;81.27
10958;BME280;5531;42.570;23.676;2022-07-09T11:34:52;92022.00;;;19.76;80.29
10958;BME280;5531;42.570;23.676;2022-07-09T11:37:27;92019.34;;;19.76;82.42
10958;BME280;5531;42.570;23.676;2022-07-09T11:39:56;92014.25;;;19.75;81.04
10958;BME280;5531;42.570;23.676;2022-07-09T11:42:25;92016.91;;;19.75;83.16
10958;BME280;5531;42.570;23.676;2022-07-09T11:44:55;92018.78;;;19.74;82.07
10958;BME280;5531;42.570;23.676;2022-07-09T11:47:32;92015.16;;;19.81;81.76
10958;BME280;5531;42.570;23.676;2022-07-09T11:50:06;92018.06;;;19.79;81.70
10958;BME280;5531;42.570;23.676;2022-07-09T11:52:43;92021.94;;;19.71;81.30
10958;BME280;5531;42.570;23.676;2022-07-09T11:55:16;92026.06;;;19.57;80.49
10958;BME280;5531;42.570;23.676;2022-07-09T11:57:53;92015.94;;;19.54;82.87
10958;BME280;5531;42.570;23.676;2022-07-09T12:00:24;92007.94;;;19.54;83.17
10958;BME280;5531;42.570;23.676;2022-07-09T12:02:54;92007.16;;;19.53;83.21
10958;BME280;5531;42.570;23.676;2022-07-09T12:05:30;91993.81;;;19.48;81.94
10958;BME280;5531;42.570;23.676;2022-07-09T12:08:05;91998.94;;;19.55;81.48
10958;BME280;5531;42.570;23.676;2022-07-09T12:10:36;91995.50;;;19.54;83.25
10958;BME280;5531;42.570;23.676;2022-07-09T12:13:06;92014.03;;;19.49;80.93
10958;BME280;5531;42.570;23.676;2022-07-09T12:15:35;92006.69;;;19.34;80.30
10958;BME280;5531;42.570;23.676;2022-07-09T12:18:05;92010.38;;;19.28;81.29
10958;BME280;5531;42.570;23.676;2022-07-09T12:20:34;92006.78;;;19.17;79.99
10958;BME280;5531;42.570;23.676;2022-07-09T12:23:05;92009.34;;;19.07;83.66
10958;BME280;5531;42.570;23.676;2022-07-09T12:25:35;92026.50;;;18.99;82.35
10958;BME280;5531;42.570;23.676;2022-07-09T12:28:05;92020.41;;;18.82;85.59
10958;BME280;5531;42.570;23.676;2022-07-09T12:30:34;92015.97;;;18.65;86.33
10958;BME280;5531;42.570;23.676;2022-07-09T12:33:03;92021.88;;;18.50;85.99
10958;BME280;5531;42.570;23.676;2022-07-09T12:35:32;92017.25;;;18.24;89.50
10958;BME280;5531;42.570;23.676;2022-07-09T12:38:02;92014.38;;;18.25;89.10
10958;BME280;5531;42.570;23.676;2022-07-09T12:40:33;92026.25;;;18.23;90.71
10958;BME280;5531;42.570;23.676;2022-07-09T12:43:02;92015.72;;;18.28;91.83
10958;BME280;5531;42.570;23.676;2022-07-09T12:45:31;92011.06;;;18.35;92.16
10958;BME280;5531;42.570;23.676;2022-07-09T12:48:01;92015.78;;;18.33;91.46
10958;BME280;5531;42.570;23.676;2022-07-09T12:50:30;92016.91;;;18.37;90.44
10958;BME280;5531;42.570;23.676;2022-07-09T12:52:59;92015.16;;;18.26;90.30
10958;BME280;5531;42.570;23.676;2022-07-09T12:55:28;92009.22;;;18.19;90.45
10958;BME280;5531;42.570;23.676;2022-07-09T12:58:00;92024.81;;;18.15;91.24
10958;BME280;5531;42.570;23.676;2022-07-09T13:00:29;92013.88;;;18.11;90.20
10958;BME280;5531;42.570;23.676;2022-07-09T13:02:58;92020.16;;;18.05;91.14
10958;BME280;5531;42.570;23.676;2022-07-09T13:05:27;92007.53;;;17.95;91.16
10958;BME280;5531;42.570;23.676;2022-07-09T13:07:56;92008.63;;;17.83;91.61